Weather at Dublin Airport

Public forecast

Using degrees Celsius for public forecast. Weather courtesy of forecast.io.

Current aviation weather report (METAR) for Dublin Airport

Retrieved 2020/11/28 19:30 UTC (0 seconds ago):

EIDW 281930Z 05005KT 9999 FEW008 SCT012 07/07 Q1021 NOSIG

Aviation forecast (TAF) for Dublin Airport

Retrieved 2020/11/28 18:11 UTC (1 hour ago):

TAF EIDW 281700Z 2818/2918 VRB03KT 9999 FEW008 BKN025 PROB40 TEMPO 2818/2822 05006KT BKN012 TEMPO 2821/2909 3000 BR PROB30 TEMPO 2822/2908 2000 BKN007 PROB30 TEMPO 2909/2911 3000 BR BECMG 2911/2913 27006KT PROB30 TEMPO 2916/2918 4000 BR